createdAt,value
2023-02-18T00:00:09.263Z,98765.38
2023-02-18T00:02:35.605Z,98765.59
2023-02-18T00:05:01.989Z,98763.50
2023-02-18T00:07:28.293Z,98764.81
2023-02-18T00:09:54.604Z,98771.22
2023-02-18T00:12:20.935Z,98770.16
2023-02-18T00:14:47.251Z,98766.94
2023-02-18T00:17:13.557Z,98766.66
2023-02-18T00:19:40.131Z,98773.34
2023-02-18T00:22:06.443Z,98762.91
2023-02-18T00:24:32.758Z,98763.19
2023-02-18T00:26:59.305Z,98760.75
2023-02-18T00:29:25.650Z,98751.66
2023-02-18T00:31:52.022Z,98759.94
2023-02-18T00:34:18.440Z,98749.53
2023-02-18T00:36:44.755Z,98737.50
2023-02-18T00:39:11.140Z,98743.09
2023-02-18T00:41:37.511Z,98739.91
2023-02-18T00:44:03.997Z,98742.53
2023-02-18T00:46:30.361Z,98734.53
2023-02-18T00:48:56.740Z,98736.66
2023-02-18T00:51:23.206Z,98739.84
2023-02-18T00:53:49.629Z,98735.06
2023-02-18T00:56:15.956Z,98735.31
2023-02-18T00:58:42.261Z,98733.19
2023-02-18T01:01:08.706Z,98744.94
2023-02-18T01:03:35.750Z,98748.13
2023-02-18T01:06:02.091Z,98735.84
2023-02-18T01:08:28.402Z,98737.38
2023-02-18T01:10:55.116Z,98738.16
2023-02-18T01:13:21.556Z,98747.25
2023-02-18T01:15:48.104Z,98742.44
2023-02-18T01:18:14.442Z,98742.94
2023-02-18T01:20:41.294Z,98730.66
2023-02-18T01:23:07.843Z,98740.00
2023-02-18T01:25:35.740Z,98744.53
2023-02-18T01:28:02.333Z,98741.59
2023-02-18T01:30:28.684Z,98733.81
2023-02-18T01:32:55.735Z,98738.63
2023-02-18T01:35:22.176Z,98735.41
2023-02-18T01:37:48.774Z,98725.78
2023-02-18T01:40:16.102Z,98721.00
2023-02-18T01:42:42.402Z,98716.97
2023-02-18T01:45:27.369Z,98724.44
2023-02-18T01:47:53.675Z,98716.94
2023-02-18T01:50:19.984Z,98721.19
2023-02-18T01:52:46.299Z,98726.78
2023-02-18T01:55:12.612Z,98733.44
2023-02-18T01:57:38.939Z,98723.31
2023-02-18T02:00:06.544Z,98722.75
2023-02-18T02:02:32.912Z,98716.88
2023-02-18T02:04:59.482Z,98717.38
2023-02-18T02:07:25.986Z,98705.38
2023-02-18T02:09:52.882Z,98698.41
2023-02-18T02:12:21.894Z,98690.94
2023-02-18T02:14:53.409Z,98685.31
2023-02-18T02:17:19.647Z,98685.31
2023-02-18T02:19:58.019Z,98685.56
2023-02-18T02:22:43.279Z,98679.41
2023-02-18T02:25:15.986Z,98687.41
2023-02-18T02:27:54.196Z,98680.47
2023-02-18T02:30:40.771Z,98673.00
2023-02-18T02:33:25.974Z,98670.34
2023-02-18T02:36:10.932Z,98666.59
2023-02-18T02:38:50.273Z,98663.13
2023-02-18T02:41:35.304Z,98662.56
2023-02-18T02:44:16.727Z,98655.06
2023-02-18T02:46:47.336Z,98661.69
2023-02-18T02:49:28.892Z,98652.34
2023-02-18T02:52:14.885Z,98640.59
2023-02-18T02:54:41.235Z,98642.72
2023-02-18T02:57:13.293Z,98631.50
2023-02-18T02:59:40.556Z,98621.91
2023-02-18T03:02:19.153Z,98617.06
2023-02-18T03:04:59.691Z,98614.69
2023-02-18T03:07:25.940Z,98607.97
2023-02-18T03:09:59.906Z,98607.44
2023-02-18T03:12:29.920Z,98609.28
2023-02-18T03:15:02.820Z,98603.44
2023-02-18T03:17:36.116Z,98595.94
2023-02-18T03:20:10.021Z,98603.94
2023-02-18T03:22:38.309Z,98599.41
2023-02-18T03:25:05.082Z,98597.00
2023-02-18T03:27:57.721Z,98603.13
2023-02-18T03:30:33.675Z,98588.47
2023-02-18T03:33:00.899Z,98591.38
2023-02-18T03:35:27.260Z,98582.84
2023-02-18T03:38:04.398Z,98579.09
2023-02-18T03:40:30.710Z,98580.44
2023-02-18T03:42:57.611Z,98568.16
2023-02-18T03:45:24.099Z,98570.56
2023-02-18T03:47:50.669Z,98574.25
2023-02-18T03:50:17.062Z,98563.06
2023-02-18T03:52:43.388Z,98571.31
2023-02-18T03:55:09.735Z,98561.97
2023-02-18T03:57:36.111Z,98555.00
2023-02-18T04:00:02.433Z,98559.84
2023-02-18T04:02:28.780Z,98547.53
2023-02-18T04:04:55.094Z,98553.94
2023-02-18T04:07:21.443Z,98556.88
2023-02-18T04:09:47.756Z,98549.38
2023-02-18T04:12:14.087Z,98542.97
2023-02-18T04:14:40.627Z,98535.72
2023-02-18T04:17:07.009Z,98529.59
2023-02-18T04:19:33.324Z,98533.06
2023-02-18T04:21:59.652Z,98526.16
2023-02-18T04:24:25.958Z,98522.41
2023-02-18T04:26:52.279Z,98519.75
2023-02-18T04:29:18.589Z,98522.69
2023-02-18T04:31:44.999Z,98506.97
2023-02-18T04:34:11.343Z,98506.13
2023-02-18T04:36:37.676Z,98498.41
2023-02-18T04:39:03.997Z,98495.22
2023-02-18T04:41:30.318Z,98502.41
2023-02-18T04:43:56.680Z,98496.47
2023-02-18T04:46:23.061Z,98496.19
2023-02-18T04:48:49.431Z,98491.13
2023-02-18T04:51:15.746Z,98478.88
2023-02-18T04:53:42.072Z,98476.72
2023-02-18T04:56:08.803Z,98475.91
2023-02-18T04:58:35.244Z,98476.97
2023-02-18T05:01:02.075Z,98471.09
2023-02-18T05:03:28.686Z,98473.22
2023-02-18T05:05:55.001Z,98479.34
2023-02-18T05:08:21.334Z,98468.16
2023-02-18T05:10:47.656Z,98470.25
2023-02-18T05:13:14.307Z,98474.50
2023-02-18T05:15:40.663Z,98452.16
2023-02-18T05:18:07.776Z,98455.06
2023-02-18T05:20:34.099Z,98442.53
2023-02-18T05:23:00.441Z,98451.34
2023-02-18T05:25:26.995Z,98444.41
2023-02-18T05:27:53.316Z,98446.03
2023-02-18T05:30:19.706Z,98434.81
2023-02-18T05:32:46.062Z,98441.19
2023-02-18T05:35:13.588Z,98442.00
2023-02-18T05:37:39.927Z,98437.75
2023-02-18T05:40:06.489Z,98432.91
2023-02-18T05:42:33.031Z,98438.25
2023-02-18T05:44:59.352Z,98424.91
2023-02-18T05:47:25.677Z,98425.16
2023-02-18T05:49:52.001Z,98425.41
2023-02-18T05:52:18.358Z,98426.72
2023-02-18T05:54:44.848Z,98414.50
2023-02-18T05:57:11.326Z,98409.41
2023-02-18T05:59:37.630Z,98407.81
2023-02-18T06:02:03.975Z,98402.47
2023-02-18T06:04:30.301Z,98398.28
2023-02-18T06:06:56.655Z,98403.69
2023-02-18T06:09:22.971Z,98385.84
2023-02-18T06:11:49.277Z,98376.56
2023-02-18T06:14:15.632Z,98378.47
2023-02-18T06:16:41.954Z,98366.25
2023-02-18T06:19:08.316Z,98375.34
2023-02-18T06:21:34.628Z,98376.13
2023-02-18T06:24:00.935Z,98371.59
2023-02-18T06:26:27.251Z,98366.00
2023-02-18T06:28:53.567Z,98355.63
2023-02-18T06:31:19.938Z,98368.66
2023-02-18T06:33:46.324Z,98363.63
2023-02-18T06:36:12.724Z,98355.63
2023-02-18T06:38:39.751Z,98358.00
2023-02-18T06:41:06.351Z,98348.44
2023-02-18T06:43:32.674Z,98343.41
2023-02-18T06:45:59.000Z,98341.53
2023-02-18T06:48:25.330Z,98339.66
2023-02-18T06:50:51.656Z,98339.66
2023-02-18T06:53:18.092Z,98337.81
2023-02-18T06:55:44.821Z,98329.81
2023-02-18T06:58:11.168Z,98346.88
2023-02-18T07:00:37.575Z,98346.88
2023-02-18T07:03:04.094Z,98339.41
2023-02-18T07:05:30.409Z,98342.31
2023-02-18T07:07:56.747Z,98331.44
2023-02-18T07:10:23.116Z,98336.75
2023-02-18T07:12:49.438Z,98338.06
2023-02-18T07:15:15.738Z,98310.63
2023-02-18T07:17:42.061Z,98305.31
2023-02-18T07:20:08.617Z,98301.31
2023-02-18T07:22:34.943Z,98303.44
2023-02-18T07:25:01.521Z,98294.38
2023-02-18T07:27:27.894Z,98292.78
2023-02-18T07:29:54.266Z,98287.19
2023-02-18T07:32:20.613Z,98284.25
2023-02-18T07:34:46.929Z,98272.25
2023-02-18T07:37:13.245Z,98281.84
2023-02-18T07:39:40.032Z,98274.13
2023-02-18T07:42:06.355Z,98283.19
2023-02-18T07:44:32.668Z,98290.66
2023-02-18T07:46:59.721Z,98280.25
2023-02-18T07:49:26.076Z,98271.47
2023-02-18T07:51:52.380Z,98292.78
2023-02-18T07:54:18.926Z,98289.88
2023-02-18T07:56:45.414Z,98293.34
2023-02-18T07:59:11.933Z,98281.59
2023-02-18T08:01:38.341Z,98271.22
2023-02-18T08:04:04.707Z,98262.44
2023-02-18T08:06:31.797Z,98271.47
2023-02-18T08:08:58.122Z,98266.13
2023-02-18T08:11:24.484Z,98269.59
2023-02-18T08:13:50.818Z,98274.13
2023-02-18T08:16:17.487Z,98266.41
2023-02-18T08:18:43.857Z,98264.03
2023-02-18T08:21:10.176Z,98268.00
2023-02-18T08:23:36.494Z,98267.22
2023-02-18T08:26:02.801Z,98269.06
2023-02-18T08:28:29.129Z,98259.75
2023-02-18T08:30:55.480Z,98255.72
2023-02-18T08:33:22.069Z,98265.59
2023-02-18T08:35:48.491Z,98269.09
2023-02-18T08:38:14.852Z,98258.44
2023-02-18T08:40:41.574Z,98251.50
2023-02-18T08:43:07.948Z,98269.34
2023-02-18T08:45:36.047Z,98253.63
2023-02-18T08:48:18.862Z,98246.69
2023-02-18T08:50:47.120Z,98256.56
2023-02-18T08:53:13.456Z,98251.22
2023-02-18T08:55:40.246Z,98249.59
2023-02-18T08:58:06.810Z,98255.47
2023-02-18T09:00:33.189Z,98251.22
2023-02-18T09:03:00.013Z,98253.88
2023-02-18T09:05:26.344Z,98251.22
2023-02-18T09:07:52.664Z,98250.66
2023-02-18T09:10:18.978Z,98253.09
2023-02-18T09:12:45.291Z,98245.91
2023-02-18T09:15:11.606Z,98244.28
2023-02-18T09:17:37.921Z,98238.69
2023-02-18T09:20:04.483Z,98224.81
2023-02-18T09:22:32.610Z,98233.59
2023-02-18T09:24:58.931Z,98245.34
2023-02-18T09:27:25.238Z,98241.88
2023-02-18T09:29:51.619Z,98220.03
2023-02-18T09:32:32.512Z,98236.03
2023-02-18T09:35:00.472Z,98234.69
2023-02-18T09:37:26.793Z,98236.03
2023-02-18T09:39:53.120Z,98232.56
2023-02-18T09:42:19.459Z,98221.06
2023-02-18T09:44:55.697Z,98240.00
2023-02-18T09:47:27.136Z,98245.34
2023-02-18T09:49:54.678Z,98227.22
2023-02-18T09:52:23.746Z,98224.03
2023-02-18T09:54:50.322Z,98222.94
2023-02-18T09:57:39.900Z,98241.59
2023-02-18T10:00:07.577Z,98220.03
2023-02-18T10:02:33.897Z,98222.94
2023-02-18T10:05:00.228Z,98223.75
2023-02-18T10:07:30.541Z,98230.97
2023-02-18T10:09:57.098Z,98226.94
2023-02-18T10:12:24.554Z,98215.47
2023-02-18T10:14:54.921Z,98198.66
2023-02-18T10:17:21.647Z,98195.22
2023-02-18T10:19:48.074Z,98195.50
2023-02-18T10:22:15.146Z,98211.50
2023-02-18T10:24:42.824Z,98222.16
2023-02-18T10:27:09.233Z,98216.03
2023-02-18T10:29:35.604Z,98209.88
2023-02-18T10:32:16.086Z,98206.41
2023-02-18T10:34:43.237Z,98207.19
2023-02-18T10:37:23.783Z,98193.63
2023-02-18T10:40:08.451Z,98214.66
2023-02-18T10:42:45.274Z,98202.94
2023-02-18T10:45:30.145Z,98221.31
2023-02-18T10:48:04.489Z,98218.94
2023-02-18T10:50:32.145Z,98201.06
2023-02-18T10:53:02.334Z,98206.94
2023-02-18T10:55:38.599Z,98218.97
2023-02-18T10:58:06.576Z,98220.81
2023-02-18T11:00:36.423Z,98210.16
2023-02-18T11:03:24.598Z,98214.94
2023-02-18T11:05:51.899Z,98200.28
2023-02-18T11:08:19.415Z,98203.22
2023-02-18T11:10:46.128Z,98196.81
2023-02-18T11:13:13.346Z,98197.88
2023-02-18T11:15:39.678Z,98210.69
2023-02-18T11:18:24.779Z,98203.22
2023-02-18T11:20:58.460Z,98214.41
2023-02-18T11:23:25.657Z,98219.75
2023-02-18T11:26:04.869Z,98215.19
2023-02-18T11:28:33.549Z,98213.59
2023-02-18T11:31:00.434Z,98231.47
2023-02-18T11:33:38.062Z,98205.09
2023-02-18T11:36:13.354Z,98212.81
2023-02-18T11:39:07.347Z,98211.22
2023-02-18T11:41:37.657Z,98220.81
2023-02-18T11:44:04.968Z,98232.78
2023-02-18T11:46:31.370Z,98211.75
2023-02-18T11:48:57.793Z,98216.53
2023-02-18T11:51:28.190Z,98219.72
2023-02-18T11:54:13.384Z,98220.81
2023-02-18T11:56:39.694Z,98220.81
2023-02-18T11:59:07.045Z,98211.22
2023-02-18T12:01:43.969Z,98228.81
2023-02-18T12:04:14.410Z,98228.53
2023-02-18T12:06:54.883Z,98222.97
2023-02-18T12:09:27.644Z,98230.13
2023-02-18T12:11:55.369Z,98207.16
2023-02-18T12:14:22.156Z,98205.56
2023-02-18T12:16:54.815Z,98222.13
2023-02-18T12:19:41.169Z,98202.66
2023-02-18T12:22:13.488Z,98208.53
2023-02-18T12:24:42.888Z,98218.16
2023-02-18T12:27:09.910Z,98212.78
2023-02-18T12:30:06.112Z,98214.91
2023-02-18T12:32:35.372Z,98214.91
2023-02-18T12:35:04.406Z,98215.97
2023-02-18T12:37:30.656Z,98201.03
2023-02-18T12:40:15.066Z,98203.16
2023-02-18T12:42:47.553Z,98215.22
2023-02-18T12:45:34.995Z,98202.91
2023-02-18T12:48:01.253Z,98224.81
2023-02-18T12:50:46.173Z,98216.81
2023-02-18T12:53:19.447Z,98222.41
2023-02-18T12:55:45.756Z,98216.53
2023-02-18T12:58:30.808Z,98234.69
2023-02-18T13:01:02.952Z,98245.91
2023-02-18T13:03:38.036Z,98260.56
2023-02-18T13:06:24.301Z,98246.44
2023-02-18T13:09:13.827Z,98240.78
2023-02-18T13:11:40.062Z,98244.00
2023-02-18T13:14:09.416Z,98238.41
2023-02-18T13:16:35.982Z,98241.63
2023-02-18T13:19:03.614Z,98224.25
2023-02-18T13:21:30.047Z,98233.06
2023-02-18T13:24:06.804Z,98238.63
2023-02-18T13:26:33.486Z,98231.69
2023-02-18T13:29:08.933Z,98232.78
2023-02-18T13:31:55.538Z,98242.66
2023-02-18T13:34:57.588Z,98235.97
2023-02-18T13:37:31.226Z,98244.53
2023-02-18T13:39:57.623Z,98234.13
2023-02-18T13:42:25.007Z,98230.66
2023-02-18T13:44:54.448Z,98237.88
2023-02-18T13:47:39.529Z,98241.59
2023-02-18T13:50:27.313Z,98241.06
2023-02-18T13:52:59.923Z,98233.06
2023-02-18T13:55:27.751Z,98229.88
2023-02-18T13:57:54.877Z,98237.88
2023-02-18T14:00:22.247Z,98244.81
2023-02-18T14:02:59.141Z,98246.16
2023-02-18T14:05:25.642Z,98241.06
2023-02-18T14:07:52.556Z,98253.88
2023-02-18T14:10:18.848Z,98251.50
2023-02-18T14:12:57.889Z,98237.59
2023-02-18T14:15:24.299Z,98250.16
2023-02-18T14:18:10.896Z,98256.84
2023-02-18T14:20:37.173Z,98266.72
2023-02-18T14:23:18.795Z,98256.03
2023-02-18T14:26:04.047Z,98263.75
2023-02-18T14:28:33.290Z,98251.47
2023-02-18T14:31:12.528Z,98261.34
2023-02-18T14:33:42.669Z,98256.00
2023-02-18T14:36:22.613Z,98267.19
2023-02-18T14:39:02.909Z,98259.75
2023-02-18T14:41:40.892Z,98274.94
2023-02-18T14:44:19.404Z,98274.16
2023-02-18T14:46:57.666Z,98284.31
2023-02-18T14:49:23.898Z,98277.38
2023-02-18T14:51:50.214Z,98299.50
2023-02-18T14:54:18.260Z,98289.09
2023-02-18T14:57:04.891Z,98270.41
2023-02-18T14:59:32.275Z,98282.16
2023-02-18T15:01:58.626Z,98284.81
2023-02-18T15:04:25.216Z,98289.38
2023-02-18T15:06:58.344Z,98281.63
2023-02-18T15:09:24.959Z,98292.56
2023-02-18T15:11:52.210Z,98300.84
2023-02-18T15:14:20.074Z,98301.41
2023-02-18T15:16:46.458Z,98295.78
2023-02-18T15:19:13.678Z,98291.78
2023-02-18T15:21:41.153Z,98301.09
2023-02-18T15:24:13.631Z,98301.91
2023-02-18T15:26:43.268Z,98300.03
2023-02-18T15:29:14.747Z,98305.34
2023-02-18T15:31:41.163Z,98307.78
2023-02-18T15:34:26.196Z,98305.91
2023-02-18T15:36:52.622Z,98304.06
2023-02-18T15:39:18.937Z,98305.91
2023-02-18T15:41:45.263Z,98305.91
2023-02-18T15:44:22.175Z,98308.31
2023-02-18T15:46:48.550Z,98313.09
2023-02-18T15:49:15.567Z,98303.50
2023-02-18T15:51:42.253Z,98311.50
2023-02-18T15:54:12.162Z,98306.72
2023-02-18T15:56:42.277Z,98311.50
2023-02-18T15:59:09.031Z,98309.91
2023-02-18T16:01:35.365Z,98306.72
2023-02-18T16:04:01.704Z,98316.84
2023-02-18T16:06:28.896Z,98314.44
2023-02-18T16:09:18.373Z,98327.25
2023-02-18T16:11:45.626Z,98323.78
2023-02-18T16:14:30.824Z,98316.06
2023-02-18T16:17:06.705Z,98306.72
2023-02-18T16:19:34.006Z,98317.13
2023-02-18T16:22:04.245Z,98326.44
2023-02-18T16:24:32.931Z,98336.56
2023-02-18T16:27:00.094Z,98337.63
2023-02-18T16:29:27.248Z,98340.84
2023-02-18T16:31:53.724Z,98337.13
2023-02-18T16:34:20.608Z,98336.03
2023-02-18T16:37:05.534Z,98329.38
2023-02-18T16:39:33.118Z,98340.84
2023-02-18T16:41:59.445Z,98332.31
2023-02-18T16:44:25.758Z,98334.47
2023-02-18T16:46:52.085Z,98344.59
2023-02-18T16:49:18.531Z,98342.38
2023-02-18T16:51:44.937Z,98337.03
2023-02-18T16:54:14.303Z,98342.94
2023-02-18T16:56:40.737Z,98348.25
2023-02-18T16:59:07.103Z,98342.38
2023-02-18T17:01:38.193Z,98350.66
2023-02-18T17:04:05.580Z,98348.53
2023-02-18T17:06:32.029Z,98364.03
2023-02-18T17:08:58.684Z,98346.94
2023-02-18T17:11:26.007Z,98357.09
2023-02-18T17:13:53.040Z,98355.50
2023-02-18T17:16:19.380Z,98359.78
2023-02-18T17:18:45.804Z,98360.28
2023-02-18T17:21:13.091Z,98365.63
2023-02-18T17:23:39.395Z,98362.13
2023-02-18T17:26:05.844Z,98353.88
2023-02-18T17:28:32.154Z,98364.31
2023-02-18T17:30:58.568Z,98368.03
2023-02-18T17:33:25.206Z,98371.78
2023-02-18T17:35:51.524Z,98361.66
2023-02-18T17:38:18.138Z,98355.47
2023-02-18T17:40:44.653Z,98371.78
2023-02-18T17:43:12.387Z,98378.69
2023-02-18T17:45:45.702Z,98388.34
2023-02-18T17:48:12.017Z,98395.00
2023-02-18T17:50:38.337Z,98382.97
2023-02-18T17:53:04.824Z,98393.94
2023-02-18T17:55:31.649Z,98396.34
2023-02-18T17:57:58.283Z,98395.81
2023-02-18T18:00:26.698Z,98401.94
2023-02-18T18:02:53.091Z,98397.94
2023-02-18T18:05:25.462Z,98403.53
2023-02-18T18:07:51.899Z,98395.53
2023-02-18T18:10:18.928Z,98388.34
2023-02-18T18:12:45.250Z,98398.22
2023-02-18T18:15:18.365Z,98380.03
2023-02-18T18:17:44.878Z,98393.66
2023-02-18T18:20:11.240Z,98405.16
2023-02-18T18:22:37.559Z,98405.16
2023-02-18T18:25:10.494Z,98401.41
2023-02-18T18:27:36.825Z,98409.97
2023-02-18T18:30:04.911Z,98404.34
2023-02-18T18:32:31.278Z,98411.25
2023-02-18T18:34:57.588Z,98408.84
2023-02-18T18:37:23.921Z,98405.63
2023-02-18T18:39:50.236Z,98413.09
2023-02-18T18:42:16.581Z,98418.47
2023-02-18T18:44:42.890Z,98410.97
2023-02-18T18:47:09.232Z,98411.22
2023-02-18T18:49:35.566Z,98413.91
2023-02-18T18:52:01.914Z,98406.19
2023-02-18T18:54:28.260Z,98412.34
2023-02-18T18:56:54.971Z,98416.59
2023-02-18T18:59:21.278Z,98420.88
2023-02-18T19:01:47.608Z,98425.19
2023-02-18T19:04:14.264Z,98421.44
2023-02-18T19:06:40.622Z,98424.13
2023-02-18T19:09:06.931Z,98415.84
2023-02-18T19:11:33.248Z,98423.03
2023-02-18T19:13:59.563Z,98423.56
2023-02-18T19:16:27.878Z,98430.25
2023-02-18T19:18:54.318Z,98433.44
2023-02-18T19:21:20.643Z,98422.25
2023-02-18T19:23:47.051Z,98430.78
2023-02-18T19:26:13.367Z,98431.56
2023-02-18T19:28:39.683Z,98444.13
2023-02-18T19:31:09.759Z,98443.63
2023-02-18T19:33:37.002Z,98451.06
2023-02-18T19:36:07.650Z,98446.00
2023-02-18T19:38:43.272Z,98440.41
2023-02-18T19:41:12.160Z,98439.88
2023-02-18T19:43:38.848Z,98444.66
2023-02-18T19:46:11.569Z,98437.44
2023-02-18T19:48:38.005Z,98442.56
2023-02-18T19:51:04.469Z,98442.78
2023-02-18T19:53:30.807Z,98443.06
2023-02-18T19:56:02.352Z,98432.66
2023-02-18T19:58:28.915Z,98442.00
2023-02-18T20:00:55.261Z,98444.16
2023-02-18T20:03:21.574Z,98438.81
2023-02-18T20:05:47.881Z,98444.13
2023-02-18T20:08:14.334Z,98446.56
2023-02-18T20:10:40.642Z,98450.03
2023-02-18T20:13:11.213Z,98436.38
2023-02-18T20:15:40.665Z,98444.41
2023-02-18T20:18:07.165Z,98432.66
2023-02-18T20:20:33.474Z,98439.06
2023-02-18T20:22:59.807Z,98438.28
2023-02-18T20:25:27.654Z,98437.19
2023-02-18T20:28:00.837Z,98438.00
2023-02-18T20:30:27.738Z,98438.28
2023-02-18T20:32:54.118Z,98454.56
2023-02-18T20:35:20.445Z,98448.94
2023-02-18T20:37:47.058Z,98444.94
2023-02-18T20:40:13.418Z,98447.09
2023-02-18T20:42:41.889Z,98427.31
2023-02-18T20:45:08.756Z,98430.53
2023-02-18T20:47:35.091Z,98434.25
2023-02-18T20:50:01.410Z,98429.72
2023-02-18T20:52:27.953Z,98426.78
2023-02-18T20:54:54.654Z,98424.34
2023-02-18T20:57:21.236Z,98421.16
2023-02-18T20:59:47.552Z,98411.56
2023-02-18T21:02:13.976Z,98413.41
2023-02-18T21:04:40.296Z,98409.72
2023-02-18T21:07:06.853Z,98414.50
2023-02-18T21:09:33.166Z,98421.19
2023-02-18T21:11:59.490Z,98424.09
2023-02-18T21:14:25.912Z,98424.66
2023-02-18T21:16:52.255Z,98421.44
2023-02-18T21:19:27.707Z,98425.97
2023-02-18T21:21:54.027Z,98420.91
2023-02-18T21:24:20.383Z,98421.72
2023-02-18T21:26:46.715Z,98412.38
2023-02-18T21:29:13.049Z,98419.06
2023-02-18T21:31:40.160Z,98401.16
2023-02-18T21:34:06.919Z,98409.41
2023-02-18T21:36:33.260Z,98406.22
2023-02-18T21:39:00.715Z,98400.91
2023-02-18T21:41:27.204Z,98404.63
2023-02-18T21:43:53.626Z,98412.38
2023-02-18T21:46:23.586Z,98398.75
2023-02-18T21:49:02.113Z,98398.22
2023-02-18T21:51:47.700Z,98408.38
2023-02-18T21:54:20.823Z,98392.63
2023-02-18T21:56:47.188Z,98396.63
2023-02-18T21:59:13.534Z,98387.03
2023-02-18T22:01:41.079Z,98390.22
2023-02-18T22:04:07.454Z,98381.41
2023-02-18T22:06:33.779Z,98380.88
2023-02-18T22:09:01.029Z,98375.00
2023-02-18T22:11:27.674Z,98378.19
2023-02-18T22:13:54.007Z,98372.88
2023-02-18T22:16:20.393Z,98371.28
2023-02-18T22:18:46.737Z,98377.69
2023-02-18T22:21:13.208Z,98370.47
2023-02-18T22:23:39.636Z,98375.00
2023-02-18T22:26:06.393Z,98371.00
2023-02-18T22:28:32.916Z,98378.19
2023-02-18T22:30:59.303Z,98369.88
2023-02-18T22:33:26.095Z,98362.16
2023-02-18T22:35:52.445Z,98365.34
2023-02-18T22:38:18.858Z,98366.16
2023-02-18T22:40:45.204Z,98362.72
2023-02-18T22:43:11.564Z,98357.94
2023-02-18T22:45:37.941Z,98359.81
2023-02-18T22:48:04.355Z,98356.31
2023-02-18T22:50:30.702Z,98360.59
2023-02-18T22:52:57.318Z,98364.84
2023-02-18T22:55:23.622Z,98358.41
2023-02-18T22:57:49.943Z,98352.81
2023-02-18T23:00:16.281Z,98348.22
2023-02-18T23:02:42.606Z,98347.13
2023-02-18T23:05:08.986Z,98339.06
2023-02-18T23:07:35.789Z,98344.13
2023-02-18T23:10:02.114Z,98338.78
2023-02-18T23:12:28.647Z,98338.78
2023-02-18T23:14:54.951Z,98342.53
2023-02-18T23:17:21.315Z,98346.56
2023-02-18T23:19:47.553Z,98339.94
2023-02-18T23:22:14.670Z,98340.19
2023-02-18T23:24:41.569Z,98329.81
2023-02-18T23:27:08.668Z,98321.47
2023-02-18T23:29:34.988Z,98309.19
2023-02-18T23:32:01.461Z,98300.66
2023-02-18T23:34:28.564Z,98313.47
2023-02-18T23:36:54.985Z,98302.53
2023-02-18T23:39:21.600Z,98288.66
2023-02-18T23:41:47.934Z,98278.78
2023-02-18T23:44:15.199Z,98267.31
2023-02-18T23:46:41.617Z,98281.75
2023-02-18T23:49:08.045Z,98279.13
2023-02-18T23:51:34.371Z,98290.06
2023-02-18T23:54:01.919Z,98287.09
2023-02-18T23:56:28.422Z,98276.19
2023-02-18T23:58:57.244Z,98277.50
